Time;durP1;ratioP1;P1;durP2;ratioP2;P2;SDS_P1;SDS_P2;PMS_P1;PMS_P2;Temp;Humidity;BMP_temperature;BMP_pressure;BME280_temperature;BME280_humidity;BME280_pressure;Samples;Min_cycle;Max_cycle;Signal;HPM_P1;HPM_P2
2023/05/05 00:00:02;;;;;;;8.38;4.13;;;13.80;57.70;;;;;;5028087;28;20840;-77
2023/05/05 00:02:29;;;;;;;8.00;3.90;;;13.80;57.70;;;;;;5021372;28;20507;-77
2023/05/05 00:04:55;;;;;;;7.57;3.80;;;13.80;57.90;;;;;;5047583;28;20486;-77
2023/05/05 00:07:22;;;;;;;8.05;4.13;;;13.70;58.00;;;;;;5020259;28;20183;-77
2023/05/05 00:09:49;;;;;;;6.67;3.93;;;13.70;58.00;;;;;;5041099;28;20673;-77
2023/05/05 00:12:16;;;;;;;8.65;3.88;;;13.70;58.20;;;;;;5020677;28;20264;-77
2023/05/05 00:14:44;;;;;;;7.50;3.88;;;13.70;58.30;;;;;;5027283;28;20054;-77
2023/05/05 00:17:11;;;;;;;8.98;4.40;;;13.70;58.40;;;;;;5009456;28;20109;-77
2023/05/05 00:19:38;;;;;;;8.93;4.25;;;13.70;58.50;;;;;;4995586;28;20524;-77
2023/05/05 00:22:05;;;;;;;8.70;4.23;;;13.70;58.50;;;;;;5046716;28;20077;-77
2023/05/05 00:24:32;;;;;;;9.85;4.70;;;13.70;58.70;;;;;;5046448;28;20331;-77
2023/05/05 00:27:00;;;;;;;7.07;4.53;;;13.70;58.60;;;;;;5032326;28;20053;-77
2023/05/05 00:29:30;;;;;;;9.88;4.22;;;13.80;58.70;;;;;;5028863;28;20624;-77
2023/05/05 00:31:58;;;;;;;9.60;4.60;;;13.80;58.70;;;;;;5012796;28;20062;-77
2023/05/05 00:34:25;;;;;;;7.70;4.50;;;13.80;58.90;;;;;;5015657;28;20052;-77
2023/05/05 00:36:52;;;;;;;10.27;4.65;;;13.80;58.90;;;;;;5028893;28;20293;-77
2023/05/05 00:39:19;;;;;;;9.82;4.55;;;13.80;58.90;;;;;;5031049;28;20069;-77
2023/05/05 00:41:46;;;;;;;8.48;4.60;;;13.80;59.10;;;;;;5012880;28;20057;-77
2023/05/05 00:44:13;;;;;;;7.82;4.45;;;13.80;59.10;;;;;;5030894;28;20053;-77
2023/05/05 00:46:41;;;;;;;8.80;4.53;;;13.80;59.20;;;;;;5037307;28;20582;-77
2023/05/05 00:49:11;;;;;;;7.90;4.50;;;13.80;59.30;;;;;;5015233;28;20256;-77
2023/05/05 00:51:38;;;;;;;8.23;4.53;;;13.80;59.30;;;;;;5004345;28;20230;-77
2023/05/05 00:54:06;;;;;;;9.52;4.78;;;13.80;59.30;;;;;;5029822;28;20088;-77
2023/05/05 00:56:33;;;;;;;7.50;4.50;;;13.70;59.40;;;;;;5013156;28;20522;-77
2023/05/05 00:59:00;;;;;;;9.00;4.83;;;13.70;59.40;;;;;;5048039;28;20050;-77
2023/05/05 01:01:27;;;;;;;9.68;4.63;;;13.70;59.60;;;;;;5030672;28;20749;-77
2023/05/05 01:03:54;;;;;;;9.55;4.60;;;13.70;59.60;;;;;;5015538;28;20160;-77
2023/05/05 01:06:41;;;;;;;11.18;4.90;;;13.70;59.70;;;;;;5029403;28;20492;-77
2023/05/05 01:09:18;;;;;;;8.70;4.65;;;13.70;59.80;;;;;;5015374;28;20271;-77
2023/05/05 01:11:56;;;;;;;10.87;5.10;;;13.70;59.80;;;;;;5015066;28;20049;-77
2023/05/05 01:14:28;;;;;;;9.30;4.82;;;13.70;59.90;;;;;;5031183;28;20298;-77
2023/05/05 01:16:58;;;;;;;9.65;5.25;;;13.70;60.00;;;;;;5015444;28;20061;-77
2023/05/05 01:19:47;;;;;;;11.55;4.80;;;13.60;60.00;;;;;;5014140;28;20503;-77
2023/05/05 01:22:20;;;;;;;7.80;4.80;;;13.60;60.10;;;;;;5013963;28;20194;-77
2023/05/05 01:25:12;;;;;;;10.17;5.17;;;13.60;60.10;;;;;;5011184;28;20046;-77
2023/05/05 01:27:55;;;;;;;10.48;4.88;;;13.60;60.40;;;;;;5031454;28;20371;-77
2023/05/05 01:31:04;;;;;;;9.15;4.68;;;13.50;60.40;;;;;;5012906;28;20075;-77
2023/05/05 01:33:39;;;;;;;8.20;5.03;;;13.50;60.70;;;;;;4968141;28;20064;-77
2023/05/05 01:36:12;;;;;;;8.60;4.57;;;13.50;60.50;;;;;;5024654;28;20116;-77
2023/05/05 01:38:42;;;;;;;8.97;4.83;;;13.50;60.40;;;;;;5030741;28;20261;-77
2023/05/05 01:41:13;;;;;;;9.07;4.93;;;13.50;60.50;;;;;;5014148;28;20324;-77
2023/05/05 01:43:44;;;;;;;10.02;5.60;;;13.50;60.50;;;;;;5015212;28;20049;-77
2023/05/05 01:46:13;;;;;;;8.63;5.20;;;13.50;60.50;;;;;;5029895;28;20053;-76
2023/05/05 01:48:45;;;;;;;7.20;4.63;;;13.50;60.50;;;;;;5039365;28;20060;-77
2023/05/05 01:51:13;;;;;;;7.23;4.60;;;13.50;60.50;;;;;;5013761;28;20133;-77
2023/05/05 01:53:41;;;;;;;7.95;4.50;;;13.50;60.50;;;;;;5013388;28;20354;-77
2023/05/05 01:56:09;;;;;;;9.57;5.25;;;13.50;60.60;;;;;;5011767;28;20368;-77
2023/05/05 01:58:38;;;;;;;10.82;5.00;;;13.50;60.60;;;;;;5029223;28;20049;-77
2023/05/05 02:01:05;;;;;;;8.38;4.68;;;13.50;60.60;;;;;;5012490;28;20092;-77
2023/05/05 02:03:33;;;;;;;9.40;4.97;;;13.50;60.70;;;;;;5020384;28;20659;-77
2023/05/05 02:06:05;;;;;;;11.80;5.10;;;13.50;60.70;;;;;;5008787;28;20279;-77
2023/05/05 02:08:34;;;;;;;9.48;5.13;;;13.50;60.60;;;;;;5029775;28;20053;-77
2023/05/05 02:11:02;;;;;;;8.63;4.80;;;13.50;60.60;;;;;;5008870;28;20057;-77
2023/05/05 02:13:31;;;;;;;8.40;5.20;;;13.50;60.60;;;;;;5013685;28;20049;-77
2023/05/05 02:15:58;;;;;;;9.03;4.73;;;13.50;60.60;;;;;;5021561;28;20512;-77
2023/05/05 02:18:27;;;;;;;10.32;5.00;;;13.50;60.70;;;;;;5022562;28;20340;-77
2023/05/05 02:20:54;;;;;;;10.80;5.05;;;13.50;60.70;;;;;;5027121;28;20096;-77
2023/05/05 02:23:22;;;;;;;10.05;4.82;;;13.40;60.70;;;;;;5008166;28;20063;-77
2023/05/05 02:25:52;;;;;;;8.70;4.68;;;13.40;60.70;;;;;;5013652;28;20050;-77
2023/05/05 02:28:23;;;;;;;8.13;4.77;;;13.40;60.80;;;;;;5045590;28;20049;-77
2023/05/05 02:30:56;;;;;;;8.40;4.78;;;13.40;60.90;;;;;;5030477;28;20825;-77
2023/05/05 02:33:25;;;;;;;10.50;5.05;;;13.40;60.90;;;;;;5028554;28;20069;-77
2023/05/05 02:35:54;;;;;;;8.85;4.70;;;13.40;60.90;;;;;;5010601;28;20523;-77
2023/05/05 02:38:28;;;;;;;7.75;4.55;;;13.50;60.80;;;;;;5013965;28;20049;-77
2023/05/05 02:41:02;;;;;;;9.53;4.80;;;13.50;60.80;;;;;;5026748;28;20053;-77
2023/05/05 02:43:32;;;;;;;9.00;5.05;;;13.50;60.80;;;;;;5012302;28;20264;-77
2023/05/05 02:45:59;;;;;;;29.55;6.80;;;13.50;60.80;;;;;;5029660;28;20053;-77
2023/05/05 02:48:28;;;;;;;10.15;5.13;;;13.50;60.80;;;;;;5012808;28;20055;-77
2023/05/05 02:50:56;;;;;;;9.52;4.80;;;13.50;60.80;;;;;;5013335;28;20045;-77
2023/05/05 02:53:33;;;;;;;8.67;4.80;;;13.50;60.80;;;;;;5014278;28;20053;-77
2023/05/05 02:56:14;;;;;;;8.40;4.80;;;13.50;60.80;;;;;;5019622;28;20333;-77
2023/05/05 02:58:54;;;;;;;9.55;4.50;;;13.50;60.80;;;;;;5005420;28;20104;-77
2023/05/05 03:01:29;;;;;;;8.68;5.03;;;13.50;60.70;;;;;;4999970;28;20053;-77
2023/05/05 03:04:06;;;;;;;10.10;5.00;;;13.50;60.50;;;;;;4994435;28;20085;-77
2023/05/05 03:06:40;;;;;;;8.60;4.63;;;13.50;60.50;;;;;;5007358;28;20530;-77
2023/05/05 03:09:15;;;;;;;8.38;4.80;;;13.50;60.50;;;;;;5013362;28;20829;-77
2023/05/05 03:11:50;;;;;;;10.05;5.30;;;13.50;60.70;;;;;;5009617;28;20448;-77
2023/05/05 03:14:20;;;;;;;11.75;4.95;;;13.50;60.70;;;;;;5013372;28;20509;-77
2023/05/05 03:16:49;;;;;;;9.85;5.10;;;13.50;60.80;;;;;;5011022;28;20405;-77
2023/05/05 03:19:18;;;;;;;8.80;4.70;;;13.50;60.80;;;;;;5013740;28;20439;-77
2023/05/05 03:21:48;;;;;;;8.70;5.40;;;13.50;60.90;;;;;;5012786;28;21181;-77
2023/05/05 03:24:17;;;;;;;8.38;4.95;;;13.50;60.90;;;;;;5013638;28;20140;-77
2023/05/05 03:26:50;;;;;;;9.52;5.20;;;13.50;61.00;;;;;;5025445;28;20408;-77
2023/05/05 03:29:21;;;;;;;8.10;4.90;;;13.40;61.10;;;;;;5013518;28;20145;-77
2023/05/05 03:31:48;;;;;;;10.17;5.50;;;13.40;61.00;;;;;;5029602;28;20423;-77
2023/05/05 03:34:15;;;;;;;8.88;5.32;;;13.40;61.10;;;;;;5027936;28;20336;-77
2023/05/05 03:36:46;;;;;;;9.23;5.55;;;13.40;61.00;;;;;;5005256;28;20161;-77
2023/05/05 03:39:17;;;;;;;9.52;5.13;;;13.40;60.90;;;;;;5010200;28;20049;-77
2023/05/05 03:41:44;;;;;;;9.40;5.35;;;13.50;60.90;;;;;;5004616;28;20045;-77
2023/05/05 03:44:12;;;;;;;8.60;5.00;;;13.50;60.90;;;;;;5011571;28;20408;-77
2023/05/05 03:46:39;;;;;;;9.18;5.50;;;13.50;61.30;;;;;;5017849;28;20340;-77
2023/05/05 03:49:10;;;;;;;9.57;5.85;;;13.50;61.30;;;;;;5009605;28;20136;-77
2023/05/05 03:51:39;;;;;;;9.57;5.47;;;13.40;61.50;;;;;;5024878;28;20148;-77
2023/05/05 03:54:06;;;;;;;12.70;6.28;;;13.40;61.50;;;;;;5029591;28;20707;-77
2023/05/05 03:56:34;;;;;;;20.30;7.77;;;13.40;61.70;;;;;;5000207;28;20057;-77
2023/05/05 03:59:01;;;;;;;13.68;7.00;;;13.30;62.20;;;;;;5022692;28;20300;-77
2023/05/05 04:01:30;;;;;;;13.35;6.47;;;13.30;62.70;;;;;;5010562;28;20129;-77
2023/05/05 04:03:57;;;;;;;13.70;6.22;;;13.30;62.90;;;;;;5013040;28;20083;-77
2023/05/05 04:06:25;;;;;;;14.63;7.32;;;13.30;63.40;;;;;;5022866;28;20552;-76
2023/05/05 04:08:52;;;;;;;15.13;7.23;;;13.30;63.80;;;;;;5002782;28;20574;-76
2023/05/05 04:11:20;;;;;;;14.13;6.90;;;13.30;64.20;;;;;;5028295;28;20261;-76
2023/05/05 04:13:48;;;;;;;14.25;6.35;;;13.30;64.30;;;;;;5021561;28;20362;-76
2023/05/05 04:16:16;;;;;;;14.10;6.80;;;13.30;64.60;;;;;;5008015;28;20587;-76
2023/05/05 04:18:43;;;;;;;12.10;7.50;;;13.30;64.70;;;;;;4997722;28;20487;-76
2023/05/05 04:21:10;;;;;;;9.97;7.07;;;13.40;65.00;;;;;;5024896;28;20139;-76
2023/05/05 04:23:38;;;;;;;13.50;6.70;;;13.40;65.20;;;;;;5009579;28;20255;-76
2023/05/05 04:26:06;;;;;;;11.43;6.47;;;13.30;65.00;;;;;;5022823;28;20053;-76
2023/05/05 04:28:33;;;;;;;12.18;6.45;;;13.40;65.20;;;;;;4992775;28;20061;-76
2023/05/05 04:31:03;;;;;;;10.65;6.45;;;13.40;65.40;;;;;;5010375;28;20460;-76
2023/05/05 04:33:32;;;;;;;15.67;7.30;;;13.50;65.70;;;;;;5029023;28;20562;-76
2023/05/05 04:35:59;;;;;;;15.70;7.65;;;13.50;65.40;;;;;;5010823;28;20284;-76
2023/05/05 04:38:27;;;;;;;11.52;6.60;;;13.50;65.90;;;;;;5010514;28;20634;-76
2023/05/05 04:40:54;;;;;;;13.45;6.03;;;13.50;66.60;;;;;;5009834;28;20124;-76
2023/05/05 04:43:22;;;;;;;10.70;6.10;;;13.40;66.50;;;;;;5010657;28;20128;-76
2023/05/05 04:45:53;;;;;;;12.27;6.63;;;13.30;66.50;;;;;;5010745;28;20077;-76
2023/05/05 04:48:23;;;;;;;12.73;6.53;;;13.30;66.60;;;;;;5009637;28;20416;-76
2023/05/05 04:50:51;;;;;;;11.90;7.20;;;13.30;66.60;;;;;;5011028;28;20053;-76
2023/05/05 04:53:18;;;;;;;10.68;6.30;;;13.30;66.80;;;;;;5014535;28;20511;-76
2023/05/05 04:55:45;;;;;;;11.45;7.03;;;13.30;67.00;;;;;;5028037;28;20085;-76
2023/05/05 04:58:12;;;;;;;12.40;6.50;;;13.30;66.90;;;;;;5007418;28;20053;-76
2023/05/05 05:00:39;;;;;;;12.00;6.95;;;13.20;67.10;;;;;;5008907;28;20291;-77
2023/05/05 05:03:06;;;;;;;12.50;6.60;;;13.20;67.10;;;;;;5024519;28;20054;-76
2023/05/05 05:05:35;;;;;;;11.98;6.65;;;13.20;67.10;;;;;;5027818;28;20056;-76
2023/05/05 05:08:02;;;;;;;12.65;6.57;;;13.10;67.20;;;;;;5008101;28;20050;-76
2023/05/05 05:10:29;;;;;;;11.07;6.37;;;13.20;67.30;;;;;;5030296;28;20053;-76
2023/05/05 05:12:56;;;;;;;10.88;6.22;;;13.10;67.80;;;;;;5014851;28;20262;-76
2023/05/05 05:15:24;;;;;;;10.63;6.75;;;13.10;67.90;;;;;;5027820;28;20556;-76
2023/05/05 05:17:51;;;;;;;11.80;6.60;;;13.10;67.80;;;;;;5009064;28;20053;-76
2023/05/05 05:20:18;;;;;;;11.98;6.70;;;13.10;68.00;;;;;;5022730;28;20054;-76
2023/05/05 05:22:47;;;;;;;12.10;7.10;;;13.10;68.00;;;;;;5023833;28;20050;-76
2023/05/05 05:25:18;;;;;;;11.75;7.18;;;13.10;68.20;;;;;;5021819;28;20348;-76
2023/05/05 05:27:46;;;;;;;12.82;7.22;;;13.10;68.10;;;;;;5021038;28;20140;-76
2023/05/05 05:30:13;;;;;;;13.35;7.53;;;13.10;68.00;;;;;;5003516;28;20065;-76
2023/05/05 05:32:40;;;;;;;11.20;7.13;;;13.10;68.20;;;;;;5023682;28;20046;-77
2023/05/05 05:35:08;;;;;;;12.70;7.83;;;13.10;68.10;;;;;;5012975;28;20512;-76
2023/05/05 05:37:36;;;;;;;11.43;7.32;;;13.10;68.20;;;;;;5006945;28;20714;-76
2023/05/05 05:40:07;;;;;;;11.95;7.07;;;13.10;68.50;;;;;;5014480;28;20060;-76
2023/05/05 05:42:35;;;;;;;12.48;7.85;;;13.10;68.30;;;;;;5008231;28;20050;-76
2023/05/05 05:45:03;;;;;;;11.60;7.20;;;13.10;68.30;;;;;;5015271;28;20516;-77
2023/05/05 05:47:31;;;;;;;12.10;7.93;;;13.20;68.60;;;;;;5010588;28;20050;-76
2023/05/05 05:49:58;;;;;;;11.68;7.15;;;13.20;69.10;;;;;;5013898;28;20926;-76
2023/05/05 05:52:25;;;;;;;13.68;7.30;;;13.20;69.40;;;;;;5008298;28;21107;-76
2023/05/05 05:54:52;;;;;;;11.07;6.70;;;13.20;69.60;;;;;;5005323;28;20058;-77
2023/05/05 05:57:22;;;;;;;10.07;7.07;;;13.20;69.60;;;;;;5007377;28;20049;-76
2023/05/05 05:59:49;;;;;;;12.03;6.93;;;13.20;69.70;;;;;;5011025;28;20579;-76
2023/05/05 06:02:17;;;;;;;10.05;6.93;;;13.20;69.60;;;;;;5010105;28;20311;-77
2023/05/05 06:04:46;;;;;;;10.05;6.80;;;13.20;69.70;;;;;;4952036;28;20054;-76
2023/05/05 06:07:13;;;;;;;10.32;6.78;;;13.20;70.10;;;;;;4969534;28;20104;-77
2023/05/05 06:09:40;;;;;;;12.82;6.57;;;13.20;70.00;;;;;;4992811;28;20095;-76
2023/05/05 06:12:07;;;;;;;10.33;6.37;;;13.20;70.10;;;;;;4941337;28;20050;-76
2023/05/05 06:14:36;;;;;;;9.82;6.28;;;13.10;70.00;;;;;;4979727;28;20464;-77
2023/05/05 06:17:03;;;;;;;10.48;6.38;;;13.10;69.90;;;;;;5008353;28;20498;-77
2023/05/05 06:19:33;;;;;;;9.18;5.97;;;13.10;69.80;;;;;;5011395;28;20412;-76
2023/05/05 06:22:00;;;;;;;10.68;6.30;;;13.10;70.00;;;;;;5004550;28;20061;-76
2023/05/05 06:24:28;;;;;;;9.33;6.40;;;13.10;70.10;;;;;;5006272;28;20137;-77
2023/05/05 06:26:58;;;;;;;10.30;7.07;;;13.10;70.20;;;;;;4993736;28;20273;-77
2023/05/05 06:29:25;;;;;;;12.48;6.90;;;13.10;70.10;;;;;;5024117;28;20109;-77
2023/05/05 06:31:53;;;;;;;10.77;6.28;;;13.10;70.20;;;;;;5023227;28;20101;-76
2023/05/05 06:34:21;;;;;;;9.80;6.57;;;13.10;70.30;;;;;;5026850;28;20077;-76
2023/05/05 06:36:47;;;;;;;13.10;6.90;;;13.10;70.10;;;;;;5010038;28;20058;-77
2023/05/05 06:39:15;;;;;;;11.18;6.88;;;13.10;69.90;;;;;;5011496;28;20242;-76
2023/05/05 06:41:41;;;;;;;11.80;7.00;;;13.10;69.60;;;;;;5034513;23;20058;-77
2023/05/05 06:44:10;;;;;;;11.77;7.03;;;13.10;69.70;;;;;;4985361;28;20130;-76
2023/05/05 06:46:37;;;;;;;11.70;7.13;;;13.20;70.00;;;;;;5001001;28;20055;-76
2023/05/05 06:49:05;;;;;;;10.27;7.10;;;13.20;69.80;;;;;;4983592;28;20059;-77
2023/05/05 06:51:32;;;;;;;13.45;7.88;;;13.30;70.00;;;;;;5001552;28;20302;-76
2023/05/05 06:53:59;;;;;;;12.60;7.00;;;13.30;70.10;;;;;;4987858;28;20212;-77
2023/05/05 06:56:25;;;;;;;10.98;7.25;;;13.30;70.20;;;;;;4984761;28;20053;-77
2023/05/05 06:58:52;;;;;;;13.60;6.93;;;13.30;70.60;;;;;;4987065;28;20133;-76
2023/05/05 07:01:19;;;;;;;12.03;7.40;;;13.30;70.40;;;;;;4968725;28;20051;-77
2023/05/05 07:03:46;;;;;;;9.95;7.10;;;13.30;70.10;;;;;;4987161;28;20255;-77
2023/05/05 07:06:14;;;;;;;12.88;7.90;;;13.30;70.10;;;;;;4985131;28;20590;-77
2023/05/05 07:08:41;;;;;;;14.75;7.50;;;13.40;69.90;;;;;;4988056;28;20377;-76
2023/05/05 07:11:08;;;;;;;12.50;7.93;;;13.50;70.30;;;;;;4984715;28;20243;-77
2023/05/05 07:13:35;;;;;;;10.90;7.33;;;13.50;70.70;;;;;;4985745;28;20047;-76
2023/05/05 07:16:02;;;;;;;13.88;7.95;;;13.50;70.80;;;;;;5000924;28;20555;-77
2023/05/05 07:18:29;;;;;;;12.55;7.65;;;13.60;70.50;;;;;;4981233;28;20513;-76
2023/05/05 07:20:56;;;;;;;14.52;9.07;;;13.60;70.20;;;;;;4989067;28;20225;-77
2023/05/05 07:23:24;;;;;;;14.23;8.07;;;13.60;70.00;;;;;;4988600;28;20057;-77
2023/05/05 07:25:51;;;;;;;13.57;8.63;;;13.70;69.90;;;;;;4983586;28;20053;-77
2023/05/05 07:28:18;;;;;;;12.10;7.88;;;13.70;70.60;;;;;;4989006;28;20353;-77
2023/05/05 07:30:45;;;;;;;15.25;8.90;;;13.70;70.60;;;;;;4974842;28;20179;-77
2023/05/05 07:33:13;;;;;;;15.38;9.15;;;13.80;71.10;;;;;;5001390;28;20067;-77
2023/05/05 07:35:40;;;;;;;13.27;8.70;;;13.90;71.20;;;;;;4978835;28;20046;-78
2023/05/05 07:38:07;;;;;;;13.50;8.47;;;13.90;71.20;;;;;;5002767;28;20047;-77
2023/05/05 07:40:35;;;;;;;13.32;8.30;;;13.90;71.50;;;;;;4987116;28;20286;-77
2023/05/05 07:43:03;;;;;;;15.70;9.45;;;14.00;71.10;;;;;;4984631;28;20067;-77
2023/05/05 07:45:31;;;;;;;15.10;9.45;;;14.00;71.00;;;;;;4981806;28;21098;-77
2023/05/05 07:47:58;;;;;;;14.93;9.82;;;14.10;71.00;;;;;;4981421;28;20134;-77
2023/05/05 07:50:25;;;;;;;14.83;9.67;;;14.10;71.00;;;;;;4986703;28;20061;-77
2023/05/05 07:52:53;;;;;;;19.17;10.32;;;14.20;70.90;;;;;;4981650;28;20259;-77
2023/05/05 07:55:21;;;;;;;15.45;9.93;;;14.20;71.30;;;;;;4965805;28;20047;-78
2023/05/05 07:57:49;;;;;;;16.45;9.88;;;14.30;71.50;;;;;;4984503;28;20130;-77
2023/05/05 08:00:18;;;;;;;17.27;10.13;;;14.30;71.50;;;;;;4980019;28;20051;-77
2023/05/05 08:02:46;;;;;;;13.43;9.37;;;14.40;71.30;;;;;;4981503;28;20063;-77
2023/05/05 08:05:13;;;;;;;17.63;10.93;;;14.40;70.90;;;;;;4983327;28;21293;-77
2023/05/05 08:07:40;;;;;;;15.27;9.98;;;14.50;71.10;;;;;;4985215;28;20069;-78
2023/05/05 08:10:10;;;;;;;16.75;9.95;;;14.50;71.30;;;;;;4985019;28;20050;-77
2023/05/05 08:12:37;;;;;;;14.98;9.70;;;14.60;71.40;;;;;;5000638;28;20051;-77
2023/05/05 08:15:07;;;;;;;14.83;9.67;;;14.60;71.10;;;;;;4947977;28;20063;-78
2023/05/05 08:17:44;;;;;;;13.52;9.57;;;14.70;71.20;;;;;;4996591;28;20269;-78
2023/05/05 08:20:12;;;;;;;16.38;10.30;;;14.80;71.10;;;;;;4978538;28;20062;-77
2023/05/05 08:22:40;;;;;;;17.42;10.65;;;14.80;71.30;;;;;;4968510;28;20786;-76
2023/05/05 08:25:09;;;;;;;16.73;11.35;;;14.90;71.60;;;;;;4980561;28;20111;-77
2023/05/05 08:27:37;;;;;;;14.77;10.23;;;14.90;72.10;;;;;;4982844;28;20137;-76
2023/05/05 08:30:07;;;;;;;18.50;11.07;;;15.00;71.80;;;;;;4981032;28;20291;-76
2023/05/05 08:32:34;;;;;;;17.35;11.02;;;15.00;72.40;;;;;;4981952;28;20093;-76
2023/05/05 08:35:03;;;;;;;15.52;10.55;;;15.20;72.90;;;;;;4984092;28;20564;-76
2023/05/05 08:37:31;;;;;;;18.38;10.57;;;15.30;73.20;;;;;;4978600;28;20055;-77
2023/05/05 08:39:58;;;;;;;17.30;10.30;;;15.40;72.90;;;;;;4982886;28;20056;-77
2023/05/05 08:42:25;;;;;;;16.73;10.00;;;15.40;72.40;;;;;;4981261;28;20255;-77
2023/05/05 08:44:53;;;;;;;17.00;11.25;;;15.50;72.60;;;;;;4999413;28;20079;-77
2023/05/05 08:47:22;;;;;;;19.13;10.52;;;15.60;72.30;;;;;;4979927;28;20170;-78
2023/05/05 08:49:49;;;;;;;18.58;11.85;;;15.60;71.90;;;;;;4985670;28;20464;-79
2023/05/05 08:52:18;;;;;;;18.50;12.13;;;15.60;72.00;;;;;;4968894;28;20800;-78
2023/05/05 08:54:51;;;;;;;19.90;11.23;;;15.70;71.80;;;;;;4988151;28;20243;-78
2023/05/05 08:57:24;;;;;;;19.30;12.48;;;15.80;71.90;;;;;;4989443;28;20055;-79
2023/05/05 08:59:52;;;;;;;21.20;12.20;;;15.80;72.10;;;;;;4979388;28;20040;-79
2023/05/05 09:02:22;;;;;;;20.25;12.02;;;15.90;72.50;;;;;;4983548;28;20062;-79
2023/05/05 09:04:51;;;;;;;18.10;12.10;;;16.00;72.40;;;;;;4983547;28;20069;-78
2023/05/05 09:07:18;;;;;;;18.63;11.48;;;16.00;72.20;;;;;;4988187;28;20275;-78
2023/05/05 09:09:46;;;;;;;18.02;11.77;;;16.10;72.40;;;;;;4986550;28;20053;-79
2023/05/05 09:12:14;;;;;;;20.60;11.98;;;16.10;72.20;;;;;;4984240;28;20055;-78
2023/05/05 09:14:41;;;;;;;19.13;12.20;;;16.20;72.60;;;;;;4970795;28;20059;-79
2023/05/05 09:17:24;;;;;;;21.40;12.43;;;16.30;72.90;;;;;;4988750;28;20078;-79
2023/05/05 09:20:06;;;;;;;21.05;12.38;;;16.40;72.80;;;;;;4971507;28;20657;-78
2023/05/05 09:22:34;;;;;;;19.83;12.05;;;16.40;72.70;;;;;;4984970;28;20102;-79
2023/05/05 09:25:02;;;;;;;19.05;12.23;;;16.40;72.50;;;;;;4990003;28;20181;-79
2023/05/05 09:27:29;;;;;;;21.20;12.70;;;16.50;72.60;;;;;;4981272;28;20066;-79
2023/05/05 09:29:57;;;;;;;16.87;11.10;;;16.50;72.80;;;;;;5003476;28;20054;-78
2023/05/05 09:32:26;;;;;;;17.90;11.32;;;16.60;72.50;;;;;;4983424;28;20872;-81
2023/05/05 09:34:58;;;;;;;20.45;12.73;;;16.60;72.30;;;;;;4997787;28;20066;-80
2023/05/05 09:37:29;;;;;;;18.85;12.23;;;16.70;72.50;;;;;;4982371;28;20105;-79
2023/05/05 09:39:59;;;;;;;21.83;13.05;;;16.80;72.40;;;;;;4987584;28;20050;-79
2023/05/05 09:42:26;;;;;;;19.40;12.87;;;16.80;72.30;;;;;;4988757;28;20058;-79
2023/05/05 09:44:54;;;;;;;19.38;12.85;;;16.90;72.40;;;;;;4989045;28;20719;-79
2023/05/05 09:47:21;;;;;;;18.98;12.68;;;16.90;72.40;;;;;;4989118;28;20113;-79
2023/05/05 09:49:58;;;;;;;20.63;12.77;;;17.00;72.20;;;;;;4978135;28;20112;-79
2023/05/05 09:52:25;;;;;;;20.35;12.50;;;17.00;72.00;;;;;;4965539;28;20069;-79
2023/05/05 09:54:56;;;;;;;18.53;13.23;;;17.00;71.80;;;;;;5000318;28;20043;-79
2023/05/05 09:57:27;;;;;;;17.88;12.57;;;17.10;72.20;;;;;;4952779;28;20264;-79
2023/05/05 09:59:59;;;;;;;19.92;12.32;;;17.20;72.20;;;;;;4984608;28;20059;-81
2023/05/05 10:02:33;;;;;;;18.55;11.02;;;17.20;72.50;;;;;;4971517;28;20891;-80
2023/05/05 10:05:07;;;;;;;14.07;10.23;;;17.30;72.60;;;;;;4987580;28;20105;-81
2023/05/05 10:07:35;;;;;;;17.47;12.13;;;17.40;72.40;;;;;;4969361;28;20054;-81
2023/05/05 10:10:03;;;;;;;18.65;10.10;;;17.50;72.70;;;;;;4970811;28;20287;-80
2023/05/05 10:12:31;;;;;;;14.80;9.25;;;17.50;72.20;;;;;;5000168;28;20055;-80
2023/05/05 10:15:00;;;;;;;15.73;9.68;;;17.60;72.00;;;;;;4985514;28;20058;-80
2023/05/05 10:17:30;;;;;;;16.77;8.52;;;17.60;71.50;;;;;;4986516;28;20501;-80
2023/05/05 10:19:59;;;;;;;14.43;8.67;;;17.70;70.90;;;;;;4975972;28;20059;-82
2023/05/05 10:22:34;;;;;;;13.30;7.97;;;17.80;70.30;;;;;;4992947;28;20303;-82
2023/05/05 10:25:03;;;;;;;15.20;9.75;;;17.80;70.10;;;;;;4983922;28;20094;-79
2023/05/05 10:27:38;;;;;;;13.40;8.27;;;17.80;70.20;;;;;;4985220;28;20047;-79
2023/05/05 10:30:07;;;;;;;9.65;4.75;;;17.90;70.20;;;;;;4985331;28;20046;-82
2023/05/05 10:32:37;;;;;;;11.07;5.83;;;18.00;69.50;;;;;;4982905;28;20134;-81
2023/05/05 10:35:08;;;;;;;11.00;5.70;;;18.00;69.30;;;;;;4987536;28;20411;-80
2023/05/05 10:37:38;;;;;;;10.13;5.03;;;18.10;69.20;;;;;;4968931;28;20121;-81
2023/05/05 10:40:07;;;;;;;11.13;4.97;;;18.10;68.90;;;;;;4988832;28;20350;-81
2023/05/05 10:42:37;;;;;;;9.60;5.55;;;18.20;68.00;;;;;;4971138;28;20055;-82
2023/05/05 10:45:05;;;;;;;10.10;4.40;;;18.20;68.00;;;;;;4997623;28;20294;-79
2023/05/05 10:47:34;;;;;;;7.28;3.85;;;18.20;68.20;;;;;;4973309;28;20697;-79
2023/05/05 10:50:07;;;;;;;10.05;4.70;;;18.30;67.60;;;;;;4987484;28;20544;-79
2023/05/05 10:52:42;;;;;;;9.93;4.70;;;18.40;67.20;;;;;;4986604;28;20062;-79
2023/05/05 10:55:13;;;;;;;7.70;4.32;;;18.40;66.40;;;;;;4988294;28;20055;-79
2023/05/05 10:57:44;;;;;;;8.13;4.50;;;18.40;66.10;;;;;;4953721;28;20047;-78
2023/05/05 11:00:33;;;;;;;8.82;4.10;;;18.40;66.50;;;;;;4966498;28;20271;-78
2023/05/05 11:03:30;;;;;;;8.23;3.33;;;18.40;66.90;;;;;;4971076;28;20517;-78
2023/05/05 11:06:12;;;;;;;6.82;2.45;;;18.50;66.50;;;;;;4928628;28;20051;-78
2023/05/05 11:08:42;;;;;;;8.55;2.90;;;18.50;65.90;;;;;;4975089;28;20533;-79
2023/05/05 11:11:10;;;;;;;8.07;4.00;;;18.60;64.90;;;;;;4988047;28;20059;-77
2023/05/05 11:13:39;;;;;;;8.88;4.20;;;18.60;64.80;;;;;;4982546;28;20247;-78
2023/05/05 11:16:26;;;;;;;8.52;4.30;;;18.60;65.20;;;;;;4986738;28;20051;-78
2023/05/05 11:18:53;;;;;;;8.48;4.07;;;18.70;65.10;;;;;;4987256;28;20054;-78
2023/05/05 11:21:20;;;;;;;9.50;5.32;;;18.70;64.90;;;;;;4984240;28;20231;-78
2023/05/05 11:23:50;;;;;;;10.90;5.63;;;18.70;65.10;;;;;;4969402;28;20043;-77
2023/05/05 11:26:19;;;;;;;10.75;4.93;;;18.70;64.90;;;;;;4983285;28;20293;-79
2023/05/05 11:29:03;;;;;;;11.02;5.88;;;18.70;64.90;;;;;;4987351;28;20058;-79
2023/05/05 11:31:30;;;;;;;9.07;5.38;;;18.70;65.30;;;;;;4987286;28;20130;-80
2023/05/05 11:34:29;;;;;;;10.15;6.00;;;18.70;65.80;;;;;;4987022;28;20057;-80
2023/05/05 11:37:00;;;;;;;9.90;5.27;;;18.70;65.80;;;;;;4983459;28;20066;-80
2023/05/05 11:39:38;;;;;;;9.60;5.20;;;18.70;65.30;;;;;;4984885;28;20325;-79
2023/05/05 11:42:20;;;;;;;9.15;5.43;;;18.80;65.40;;;;;;4985548;28;20149;-80
2023/05/05 11:44:47;;;;;;;10.55;5.50;;;18.80;65.20;;;;;;4981403;28;20047;-80
2023/05/05 11:47:29;;;;;;;8.75;5.35;;;18.80;65.00;;;;;;4986913;28;20062;-80
2023/05/05 11:49:58;;;;;;;9.80;4.40;;;18.80;64.80;;;;;;4969472;28;20054;-81
2023/05/05 11:52:26;;;;;;;10.02;4.35;;;18.80;65.00;;;;;;4984458;28;20363;-81
2023/05/05 11:55:02;;;;;;;9.30;3.90;;;18.80;64.70;;;;;;4986647;28;20059;-81
2023/05/05 11:57:30;;;;;;;7.10;3.83;;;18.80;64.80;;;;;;4980803;28;20048;-81
2023/05/05 11:59:59;;;;;;;7.60;3.83;;;18.80;65.20;;;;;;4987102;28;20046;-82
2023/05/05 12:02:28;;;;;;;10.10;3.87;;;18.80;65.40;;;;;;4969087;28;20568;-81
2023/05/05 12:04:56;;;;;;;9.70;4.30;;;18.80;65.40;;;;;;5003417;28;20812;-82
2023/05/05 12:07:25;;;;;;;7.65;3.28;;;18.90;64.70;;;;;;4983528;28;20613;-81
2023/05/05 12:09:53;;;;;;;7.95;3.30;;;18.80;64.20;;;;;;4988130;28;20822;-81
2023/05/05 12:12:34;;;;;;;8.15;3.95;;;18.90;63.90;;;;;;4983047;28;20499;-80
2023/05/05 12:15:01;;;;;;;9.57;3.90;;;19.00;64.00;;;;;;4981080;28;20062;-80
2023/05/05 12:17:38;;;;;;;6.93;3.60;;;19.00;63.80;;;;;;4970204;28;20267;-81
2023/05/05 12:20:07;;;;;;;8.35;3.30;;;19.00;63.90;;;;;;4982257;28;20055;-79
2023/05/05 12:22:34;;;;;;;6.45;2.63;;;19.00;64.10;;;;;;4971037;28;20514;-80
2023/05/05 12:25:03;;;;;;;8.30;3.10;;;19.00;64.00;;;;;;4987427;28;20549;-80
2023/05/05 12:27:31;;;;;;;8.13;2.93;;;19.00;63.60;;;;;;4969797;28;20085;-80
2023/05/05 12:30:11;;;;;;;5.35;2.10;;;19.00;63.60;;;;;;5002529;28;20254;-81
2023/05/05 12:32:38;;;;;;;5.75;2.30;;;19.00;63.40;;;;;;4988049;28;20055;-80
2023/05/05 12:35:07;;;;;;;9.00;2.38;;;19.10;63.20;;;;;;4985352;28;20055;-79
2023/05/05 12:37:35;;;;;;;6.47;2.28;;;19.10;63.50;;;;;;4956255;28;20056;-79
2023/05/05 12:40:04;;;;;;;9.40;2.43;;;19.10;63.90;;;;;;4989008;28;20059;-79
2023/05/05 12:42:39;;;;;;;7.53;2.58;;;19.00;64.60;;;;;;4990425;28;20259;-79
2023/05/05 12:45:15;;;;;;;9.93;2.95;;;18.90;64.70;;;;;;4988959;28;20050;-78
2023/05/05 12:47:43;;;;;;;6.20;2.33;;;18.70;65.20;;;;;;4990105;28;20058;-78
2023/05/05 12:50:10;;;;;;;5.57;2.90;;;18.60;65.60;;;;;;4985370;28;20670;-76